Main page
METAR-TAF:

METAR-TAF

Airports :

Estherville Municipal Airport

Estherville, Iowa, United States

latitude: 43-24-04N, longitude: 094-44-50W, elevation: 1315 ft

Current weather observation

The report was made 22 minutes ago, at 04:21 UTC
Wind 9 mph from the North
Temperature 63°F
Humidity 100%
Pressure 29.86 in. Hg
Visibility: 2.5 miles
Few clouds at a height of 1700 ft
Broken clouds at a height of 7000 ft
Overcast at a height of 9000 ft
rain, mist

METAR: KEST 260421Z AUTO 36008KT 2 1/2SM RA BR FEW017 BKN070 OVC090 17/17 A2986 RMK AO2 P0006 T01720172

Time: 23:43 (04:43 UTC)


TAF: missing

Weather observations and forecasts of more than 4000 airports (METAR and TAF reports).

The available stations are represented by yellow and red dots on the map.

Hover mouse over dot to see the name of the station.

Then click to see weather observations and forecasts.

To change the map : click on the green buttons with a black cross to zoom in, on the green button with a dash to zoom out, or on the green arrows for adjacent maps.


METAR-TAF: